Flight Track Log - Related Links

Times and Time Zones

All times are in EST time to prevent confusion due to time zone crossing. See the ASQ4209 flight status page for this flight to view local times or setup timezone preferences in your user account.

Time Position Orientation Groundspeed Altitude Reporting Facility
EST Latitude Longitude Course Direction KTS MPH feet Rate Location/Type
Fri 01:55:00 PM 29.9639 -95.3433 77° East 190 219 600  Level Houston Center
Fri 01:56:11 PM 29.9203 -95.2919 134° Southeast 218 251 2,500 1,800 Climbing Houston Center
Fri 01:56:20 PM 29.9075 -95.2778 136° Southeast 240 276 3,000 2,226 Climbing Houston Center
Fri 01:57:13 PM 29.8717 -95.2333 133° Southeast 239 275 4,800 2,250 Climbing Houston Center
Fri 01:57:16 PM 29.8622 -95.2206 130° Southeast 280 322 5,100 2,857 Climbing Houston Center
Fri 01:58:00 PM 30.0524 -94.8749 90° East  Level Estimated
Fri 01:58:16 PM 29.8400 -95.1414 108° East 282 325 7,800  Level Houston Center
Fri 01:59:00 PM 30.0691 -94.7582 90° East  Level Estimated
Fri 01:59:18 PM 29.8542 -95.0619 78° East 296 341 9,500  Level Houston Center
Fri 01:59:24 PM 29.8594 -95.0331 78° East 312 359 10,000 1,355 Climbing Houston Center
Fri 02:00:00 PM 30.0858 -94.6414 77° East  Level Estimated
Fri 02:00:20 PM 29.8786 -94.9364 77° East 334 384 10,900  Level Houston Center
Fri 02:01:22 PM 29.9019 -94.8150 77° East 379 436 12,100 1,210 Climbing Houston Center
Fri 02:02:24 PM 29.9256 -94.6919 77° East 391 450 13,400 1,210 Climbing Houston Center
Fri 02:03:26 PM 29.9483 -94.5675 78° East 396 456 14,600 1,258 Climbing Houston Center
Fri 02:04:28 PM 29.9742 -94.4294 78° East 400 460 16,000 1,258 Climbing Houston Center
Fri 02:05:30 PM 29.9981 -94.3017 78° East 406 467 17,200 1,152 Climbing Houston Center
Fri 02:06:33 PM 30.0139 -94.1700 82° East 413 475 18,400 1,152 Climbing Houston Center
Fri 02:07:35 PM 30.0303 -94.0383 82° East 416 479 19,600 1,210 Climbing Houston Center
Fri 02:08:37 PM 30.0472 -93.9028 82° East 425 489 20,900 1,355 Climbing Houston Center
Fri 02:09:39 PM 30.0669 -93.7397 82° East 429 494 22,400 1,016 Climbing Houston Center
Fri 02:10:41 PM 30.0831 -93.6042 82° East 430 495 23,000 290 Climbing Houston Center
Fri 02:11:43 PM 30.1003 -93.4603 82° East 454 522 23,000  Level Houston Center
Fri 02:12:45 PM 30.1178 -93.3106 82° East 474 545 23,000  Level Houston Center
Fri 02:13:47 PM 30.1406 -93.1264 82° East 486 559 23,000  Level Houston Center
Fri 02:14:50 PM 30.1686 -92.9725 78° East 492 566 23,000  Level Houston Center
Fri 02:15:52 PM 30.1983 -92.8194 77° East 492 566 23,000  Level Houston Center
Fri 02:16:54 PM 30.2283 -92.6664 77° East 492 566 23,000  Level Houston Center
Fri 02:17:56 PM 30.2575 -92.5142 77° East 488 562 23,000 -97 Level Houston Center
Fri 02:18:58 PM 30.2922 -92.3306 78° East 488 562 22,800 -1,258 Descending Houston Center
Fri 02:20:00 PM 30.3222 -92.1744 77° East 478 550 20,400 -2,565 Descending Houston Center
Fri 02:21:02 PM 30.3500 -92.0311 77° East 462 532 17,500 -2,855 Descending Houston Center
Fri 02:22:04 PM 30.3744 -91.8969 78° East 434 499 14,500 -2,688 Descending Houston Center
Fri 02:23:07 PM 30.3983 -91.7692 78° East 413 475 11,900 -1,680 Descending Houston Center
Fri 02:24:09 PM 30.4228 -91.6403 78° East 368 423 11,000 -1,258 Descending Houston Center
Fri 02:25:11 PM 30.4411 -91.5408 78° East 324 373 9,300 -1,887 Descending Houston Center
Fri 02:26:13 PM 30.4453 -91.4447 87° East 303 349 7,100 -1,742 Descending Houston Center
Fri 02:27:15 PM 30.4625 -91.3686 75° East 267 307 5,700 -1,306 Descending Houston Center
Fri 02:28:17 PM 30.5114 -91.3294 35° Northeast 229 264 4,400 -823 Descending Houston Center
Fri 02:29:19 PM 30.5667 -91.3122 15° North 198 228 4,000 -387 Descending Houston Center

Login

Don't have an account? Register now (free) for customized features, flight alerts, and more!